sensor_id;sensor_type;location;lat;lon;timestamp;temperature;humidity
20416;DHT22;10367;52.202;5.996;2023-04-24T00:00:34;9.30;99.90
20416;DHT22;10367;52.202;5.996;2023-04-24T00:03:03;9.40;99.90
20416;DHT22;10367;52.202;5.996;2023-04-24T00:05:33;9.40;99.90
20416;DHT22;10367;52.202;5.996;2023-04-24T00:08:02;9.40;99.90
20416;DHT22;10367;52.202;5.996;2023-04-24T00:10:31;9.40;99.90
20416;DHT22;10367;52.202;5.996;2023-04-24T00:13:00;9.40;99.90
20416;DHT22;10367;52.202;5.996;2023-04-24T00:15:30;9.40;99.90
20416;DHT22;10367;52.202;5.996;2023-04-24T00:18:06;9.40;99.90
20416;DHT22;10367;52.202;5.996;2023-04-24T00:20:37;9.40;99.90
20416;DHT22;10367;52.202;5.996;2023-04-24T00:23:07;9.40;99.90
20416;DHT22;10367;52.202;5.996;2023-04-24T00:25:41;9.40;99.90
20416;DHT22;10367;52.202;5.996;2023-04-24T00:28:12;9.40;99.90
20416;DHT22;10367;52.202;5.996;2023-04-24T00:30:47;9.40;99.90
20416;DHT22;10367;52.202;5.996;2023-04-24T00:33:20;9.40;99.90
20416;DHT22;10367;52.202;5.996;2023-04-24T00:35:49;9.40;99.90
20416;DHT22;10367;52.202;5.996;2023-04-24T00:38:19;9.40;99.90
20416;DHT22;10367;52.202;5.996;2023-04-24T00:40:49;9.40;99.90
20416;DHT22;10367;52.202;5.996;2023-04-24T00:43:20;9.40;99.90
20416;DHT22;10367;52.202;5.996;2023-04-24T00:45:53;9.40;99.90
20416;DHT22;10367;52.202;5.996;2023-04-24T00:48:23;9.50;99.90
20416;DHT22;10367;52.202;5.996;2023-04-24T00:50:53;9.40;99.90
20416;DHT22;10367;52.202;5.996;2023-04-24T00:53:25;9.50;99.90
20416;DHT22;10367;52.202;5.996;2023-04-24T00:55:54;9.50;99.90
20416;DHT22;10367;52.202;5.996;2023-04-24T00:58:23;9.50;99.90
20416;DHT22;10367;52.202;5.996;2023-04-24T01:00:54;9.50;99.90
20416;DHT22;10367;52.202;5.996;2023-04-24T01:03:29;9.40;99.90
20416;DHT22;10367;52.202;5.996;2023-04-24T01:06:00;9.40;99.90
20416;DHT22;10367;52.202;5.996;2023-04-24T01:08:31;9.30;99.90
20416;DHT22;10367;52.202;5.996;2023-04-24T01:11:08;9.30;99.90
20416;DHT22;10367;52.202;5.996;2023-04-24T01:13:37;9.20;99.90
20416;DHT22;10367;52.202;5.996;2023-04-24T01:16:09;9.20;99.90
20416;DHT22;10367;52.202;5.996;2023-04-24T01:18:38;9.10;99.90
20416;DHT22;10367;52.202;5.996;2023-04-24T01:21:08;9.10;99.90
20416;DHT22;10367;52.202;5.996;2023-04-24T01:23:41;9.10;99.90
20416;DHT22;10367;52.202;5.996;2023-04-24T01:26:10;9.10;99.90
20416;DHT22;10367;52.202;5.996;2023-04-24T01:28:38;9.00;99.90
20416;DHT22;10367;52.202;5.996;2023-04-24T01:31:07;9.00;99.90
20416;DHT22;10367;52.202;5.996;2023-04-24T01:33:36;9.00;99.90
20416;DHT22;10367;52.202;5.996;2023-04-24T01:36:05;8.90;99.90
20416;DHT22;10367;52.202;5.996;2023-04-24T01:38:34;9.00;99.90
20416;DHT22;10367;52.202;5.996;2023-04-24T01:41:07;9.00;99.90
20416;DHT22;10367;52.202;5.996;2023-04-24T01:43:36;9.00;99.90
20416;DHT22;10367;52.202;5.996;2023-04-24T01:46:06;9.00;99.90
20416;DHT22;10367;52.202;5.996;2023-04-24T01:48:35;9.00;99.90
20416;DHT22;10367;52.202;5.996;2023-04-24T01:51:04;8.90;99.90
20416;DHT22;10367;52.202;5.996;2023-04-24T01:53:35;8.90;99.90
20416;DHT22;10367;52.202;5.996;2023-04-24T01:56:09;8.80;99.90
20416;DHT22;10367;52.202;5.996;2023-04-24T01:58:46;8.80;99.90
20416;DHT22;10367;52.202;5.996;2023-04-24T02:01:18;8.70;99.90
20416;DHT22;10367;52.202;5.996;2023-04-24T02:03:48;8.70;99.90
20416;DHT22;10367;52.202;5.996;2023-04-24T02:06:17;8.70;99.90
20416;DHT22;10367;52.202;5.996;2023-04-24T02:08:48;8.70;99.90
20416;DHT22;10367;52.202;5.996;2023-04-24T02:11:18;8.70;99.90
20416;DHT22;10367;52.202;5.996;2023-04-24T02:13:50;8.80;99.90
20416;DHT22;10367;52.202;5.996;2023-04-24T02:16:21;8.80;99.90
20416;DHT22;10367;52.202;5.996;2023-04-24T02:18:53;8.90;99.90
20416;DHT22;10367;52.202;5.996;2023-04-24T02:21:25;8.80;99.90
20416;DHT22;10367;52.202;5.996;2023-04-24T02:24:00;8.80;99.90
20416;DHT22;10367;52.202;5.996;2023-04-24T02:26:30;8.70;99.90
20416;DHT22;10367;52.202;5.996;2023-04-24T02:28:59;8.80;99.90
20416;DHT22;10367;52.202;5.996;2023-04-24T02:31:28;8.90;99.90
20416;DHT22;10367;52.202;5.996;2023-04-24T02:33:56;9.00;99.90
20416;DHT22;10367;52.202;5.996;2023-04-24T02:36:25;9.00;99.90
20416;DHT22;10367;52.202;5.996;2023-04-24T02:38:54;9.00;99.90
20416;DHT22;10367;52.202;5.996;2023-04-24T02:41:22;9.10;99.90
20416;DHT22;10367;52.202;5.996;2023-04-24T02:44:00;9.10;99.90
20416;DHT22;10367;52.202;5.996;2023-04-24T02:46:29;9.10;99.90
20416;DHT22;10367;52.202;5.996;2023-04-24T02:48:58;9.10;99.90
20416;DHT22;10367;52.202;5.996;2023-04-24T02:51:27;9.20;99.90
20416;DHT22;10367;52.202;5.996;2023-04-24T02:53:59;9.20;99.90
20416;DHT22;10367;52.202;5.996;2023-04-24T02:56:28;9.20;99.90
20416;DHT22;10367;52.202;5.996;2023-04-24T02:58:57;9.10;99.90
20416;DHT22;10367;52.202;5.996;2023-04-24T03:01:27;9.20;99.90
20416;DHT22;10367;52.202;5.996;2023-04-24T03:03:55;9.20;99.90
20416;DHT22;10367;52.202;5.996;2023-04-24T03:06:25;9.20;99.90
20416;DHT22;10367;52.202;5.996;2023-04-24T03:08:54;9.30;99.90
20416;DHT22;10367;52.202;5.996;2023-04-24T03:11:23;9.30;99.90
20416;DHT22;10367;52.202;5.996;2023-04-24T03:13:52;9.20;99.90
20416;DHT22;10367;52.202;5.996;2023-04-24T03:16:21;9.20;99.90
20416;DHT22;10367;52.202;5.996;2023-04-24T03:18:51;9.30;99.90
20416;DHT22;10367;52.202;5.996;2023-04-24T03:21:20;9.20;99.90
20416;DHT22;10367;52.202;5.996;2023-04-24T03:23:48;9.20;99.90
20416;DHT22;10367;52.202;5.996;2023-04-24T03:26:17;9.30;99.90
20416;DHT22;10367;52.202;5.996;2023-04-24T03:28:47;9.20;99.90
20416;DHT22;10367;52.202;5.996;2023-04-24T03:31:16;9.20;99.90
20416;DHT22;10367;52.202;5.996;2023-04-24T03:33:50;9.20;99.90
20416;DHT22;10367;52.202;5.996;2023-04-24T03:36:21;9.20;99.90
20416;DHT22;10367;52.202;5.996;2023-04-24T03:38:52;9.20;99.90
20416;DHT22;10367;52.202;5.996;2023-04-24T03:41:21;9.20;99.90
20416;DHT22;10367;52.202;5.996;2023-04-24T03:43:50;9.10;99.90
20416;DHT22;10367;52.202;5.996;2023-04-24T03:46:19;9.20;99.90
20416;DHT22;10367;52.202;5.996;2023-04-24T03:48:52;9.10;99.90
20416;DHT22;10367;52.202;5.996;2023-04-24T03:51:20;9.10;99.90
20416;DHT22;10367;52.202;5.996;2023-04-24T03:53:50;9.10;99.90
20416;DHT22;10367;52.202;5.996;2023-04-24T03:56:20;9.10;99.90
20416;DHT22;10367;52.202;5.996;2023-04-24T03:58:52;9.10;99.90
20416;DHT22;10367;52.202;5.996;2023-04-24T04:01:21;9.10;99.90
20416;DHT22;10367;52.202;5.996;2023-04-24T04:03:51;9.10;99.90
20416;DHT22;10367;52.202;5.996;2023-04-24T04:06:23;9.00;99.90
20416;DHT22;10367;52.202;5.996;2023-04-24T04:08:57;9.00;99.90
20416;DHT22;10367;52.202;5.996;2023-04-24T04:11:29;9.00;99.90
20416;DHT22;10367;52.202;5.996;2023-04-24T04:13:59;9.00;99.90
20416;DHT22;10367;52.202;5.996;2023-04-24T04:16:28;9.00;99.90
20416;DHT22;10367;52.202;5.996;2023-04-24T04:19:00;9.00;99.90
20416;DHT22;10367;52.202;5.996;2023-04-24T04:21:30;9.00;99.90
20416;DHT22;10367;52.202;5.996;2023-04-24T04:24:03;9.00;99.90
20416;DHT22;10367;52.202;5.996;2023-04-24T04:26:36;9.00;99.90
20416;DHT22;10367;52.202;5.996;2023-04-24T04:29:05;9.00;99.90
20416;DHT22;10367;52.202;5.996;2023-04-24T04:31:34;9.10;99.90
20416;DHT22;10367;52.202;5.996;2023-04-24T04:34:09;9.10;99.90
20416;DHT22;10367;52.202;5.996;2023-04-24T04:36:41;9.00;99.90
20416;DHT22;10367;52.202;5.996;2023-04-24T04:39:16;9.00;99.90
20416;DHT22;10367;52.202;5.996;2023-04-24T04:41:46;9.00;99.90
20416;DHT22;10367;52.202;5.996;2023-04-24T04:44:17;9.00;99.90
20416;DHT22;10367;52.202;5.996;2023-04-24T04:46:48;9.00;99.90
20416;DHT22;10367;52.202;5.996;2023-04-24T04:49:21;9.00;99.90
20416;DHT22;10367;52.202;5.996;2023-04-24T04:51:51;9.00;99.90
20416;DHT22;10367;52.202;5.996;2023-04-24T04:54:20;9.00;99.90
20416;DHT22;10367;52.202;5.996;2023-04-24T04:56:50;9.00;99.90
20416;DHT22;10367;52.202;5.996;2023-04-24T04:59:18;9.00;99.90
20416;DHT22;10367;52.202;5.996;2023-04-24T05:01:47;9.00;99.90
20416;DHT22;10367;52.202;5.996;2023-04-24T05:04:16;9.00;99.90
20416;DHT22;10367;52.202;5.996;2023-04-24T05:06:46;9.00;99.90
20416;DHT22;10367;52.202;5.996;2023-04-24T05:09:15;8.90;99.90
20416;DHT22;10367;52.202;5.996;2023-04-24T05:11:44;9.00;99.90
20416;DHT22;10367;52.202;5.996;2023-04-24T05:14:13;9.00;99.90
20416;DHT22;10367;52.202;5.996;2023-04-24T05:16:41;8.90;99.90
20416;DHT22;10367;52.202;5.996;2023-04-24T05:19:10;8.90;99.90
20416;DHT22;10367;52.202;5.996;2023-04-24T05:21:41;8.90;99.90
20416;DHT22;10367;52.202;5.996;2023-04-24T05:24:11;8.90;99.90
20416;DHT22;10367;52.202;5.996;2023-04-24T05:26:40;8.90;99.90
20416;DHT22;10367;52.202;5.996;2023-04-24T05:29:08;9.00;99.90
20416;DHT22;10367;52.202;5.996;2023-04-24T05:31:37;8.90;99.90
20416;DHT22;10367;52.202;5.996;2023-04-24T05:34:06;9.00;99.90
20416;DHT22;10367;52.202;5.996;2023-04-24T05:36:34;9.00;99.90
20416;DHT22;10367;52.202;5.996;2023-04-24T05:39:03;8.90;99.90
20416;DHT22;10367;52.202;5.996;2023-04-24T05:41:36;8.90;99.90
20416;DHT22;10367;52.202;5.996;2023-04-24T05:44:04;8.90;99.90
20416;DHT22;10367;52.202;5.996;2023-04-24T05:46:33;8.90;99.90
20416;DHT22;10367;52.202;5.996;2023-04-24T05:49:02;8.80;99.90
20416;DHT22;10367;52.202;5.996;2023-04-24T05:51:31;8.80;99.90
20416;DHT22;10367;52.202;5.996;2023-04-24T05:53:59;8.80;99.90
20416;DHT22;10367;52.202;5.996;2023-04-24T05:56:29;8.80;99.90
20416;DHT22;10367;52.202;5.996;2023-04-24T05:58:59;8.80;99.90
20416;DHT22;10367;52.202;5.996;2023-04-24T06:01:31;8.80;99.90
20416;DHT22;10367;52.202;5.996;2023-04-24T06:04:02;8.80;99.90
20416;DHT22;10367;52.202;5.996;2023-04-24T06:06:31;8.80;99.90
20416;DHT22;10367;52.202;5.996;2023-04-24T06:08:59;8.80;99.90
20416;DHT22;10367;52.202;5.996;2023-04-24T06:11:28;8.80;99.90
20416;DHT22;10367;52.202;5.996;2023-04-24T06:14:00;8.80;99.90
20416;DHT22;10367;52.202;5.996;2023-04-24T06:16:30;8.80;99.90
20416;DHT22;10367;52.202;5.996;2023-04-24T06:18:59;8.90;99.90
20416;DHT22;10367;52.202;5.996;2023-04-24T06:21:28;8.90;99.90
20416;DHT22;10367;52.202;5.996;2023-04-24T06:23:56;9.00;99.90
20416;DHT22;10367;52.202;5.996;2023-04-24T06:26:25;9.00;99.90
20416;DHT22;10367;52.202;5.996;2023-04-24T06:28:54;9.00;99.90
20416;DHT22;10367;52.202;5.996;2023-04-24T06:31:28;9.00;99.90
20416;DHT22;10367;52.202;5.996;2023-04-24T06:33:57;9.00;99.90
20416;DHT22;10367;52.202;5.996;2023-04-24T06:36:26;9.00;99.90
20416;DHT22;10367;52.202;5.996;2023-04-24T06:38:55;9.10;99.90
20416;DHT22;10367;52.202;5.996;2023-04-24T06:41:24;9.10;99.90
20416;DHT22;10367;52.202;5.996;2023-04-24T06:43:53;9.10;99.90
20416;DHT22;10367;52.202;5.996;2023-04-24T06:46:22;9.10;99.90
20416;DHT22;10367;52.202;5.996;2023-04-24T06:48:55;9.20;99.90
20416;DHT22;10367;52.202;5.996;2023-04-24T06:51:26;9.20;99.90
20416;DHT22;10367;52.202;5.996;2023-04-24T06:53:57;9.30;99.90
20416;DHT22;10367;52.202;5.996;2023-04-24T06:56:26;9.30;99.90
20416;DHT22;10367;52.202;5.996;2023-04-24T06:58:56;9.30;99.90
20416;DHT22;10367;52.202;5.996;2023-04-24T07:01:27;9.30;99.90
20416;DHT22;10367;52.202;5.996;2023-04-24T07:03:57;9.20;99.90
20416;DHT22;10367;52.202;5.996;2023-04-24T07:06:27;9.20;99.90
20416;DHT22;10367;52.202;5.996;2023-04-24T07:08:57;9.20;99.90
20416;DHT22;10367;52.202;5.996;2023-04-24T07:11:27;9.20;99.90
20416;DHT22;10367;52.202;5.996;2023-04-24T07:13:56;9.10;99.90
20416;DHT22;10367;52.202;5.996;2023-04-24T07:16:25;9.10;99.90
20416;DHT22;10367;52.202;5.996;2023-04-24T07:18:54;9.10;99.90
20416;DHT22;10367;52.202;5.996;2023-04-24T07:21:24;9.10;99.90
20416;DHT22;10367;52.202;5.996;2023-04-24T07:23:54;9.10;99.90
20416;DHT22;10367;52.202;5.996;2023-04-24T07:26:23;9.10;99.90
20416;DHT22;10367;52.202;5.996;2023-04-24T07:28:52;9.10;99.90
20416;DHT22;10367;52.202;5.996;2023-04-24T07:31:21;9.10;99.90
20416;DHT22;10367;52.202;5.996;2023-04-24T07:33:52;9.10;99.90
20416;DHT22;10367;52.202;5.996;2023-04-24T07:36:21;9.10;99.90
20416;DHT22;10367;52.202;5.996;2023-04-24T07:38:52;9.10;99.90
20416;DHT22;10367;52.202;5.996;2023-04-24T07:41:22;9.10;99.90
20416;DHT22;10367;52.202;5.996;2023-04-24T07:43:51;9.10;99.90
20416;DHT22;10367;52.202;5.996;2023-04-24T07:46:21;9.10;99.90
20416;DHT22;10367;52.202;5.996;2023-04-24T07:48:50;9.10;99.90
20416;DHT22;10367;52.202;5.996;2023-04-24T07:51:38;9.10;99.90
20416;DHT22;10367;52.202;5.996;2023-04-24T07:54:08;9.10;99.90
20416;DHT22;10367;52.202;5.996;2023-04-24T07:56:37;9.00;99.90
20416;DHT22;10367;52.202;5.996;2023-04-24T07:59:06;9.00;99.90
20416;DHT22;10367;52.202;5.996;2023-04-24T08:01:37;8.90;99.90
20416;DHT22;10367;52.202;5.996;2023-04-24T08:04:05;8.90;99.90
20416;DHT22;10367;52.202;5.996;2023-04-24T08:06:34;8.80;99.90
20416;DHT22;10367;52.202;5.996;2023-04-24T08:09:03;8.70;99.90
20416;DHT22;10367;52.202;5.996;2023-04-24T08:11:33;8.70;99.90
20416;DHT22;10367;52.202;5.996;2023-04-24T08:14:02;8.60;99.90
20416;DHT22;10367;52.202;5.996;2023-04-24T08:16:32;8.50;99.90
20416;DHT22;10367;52.202;5.996;2023-04-24T08:19:01;8.50;99.90
20416;DHT22;10367;52.202;5.996;2023-04-24T08:21:30;8.50;99.90
20416;DHT22;10367;52.202;5.996;2023-04-24T08:23:59;8.40;99.90
20416;DHT22;10367;52.202;5.996;2023-04-24T08:26:27;8.50;99.90
20416;DHT22;10367;52.202;5.996;2023-04-24T08:28:58;8.50;99.90
20416;DHT22;10367;52.202;5.996;2023-04-24T08:31:26;8.50;99.90
20416;DHT22;10367;52.202;5.996;2023-04-24T08:33:55;8.40;99.90
20416;DHT22;10367;52.202;5.996;2023-04-24T08:36:24;8.50;99.90
20416;DHT22;10367;52.202;5.996;2023-04-24T08:39:10;8.50;99.90
20416;DHT22;10367;52.202;5.996;2023-04-24T08:41:40;8.60;99.90
20416;DHT22;10367;52.202;5.996;2023-04-24T08:44:12;8.60;99.90
20416;DHT22;10367;52.202;5.996;2023-04-24T08:46:43;8.60;99.90
20416;DHT22;10367;52.202;5.996;2023-04-24T08:49:14;8.60;99.90
20416;DHT22;10367;52.202;5.996;2023-04-24T08:51:45;8.70;99.90
20416;DHT22;10367;52.202;5.996;2023-04-24T08:54:15;8.70;99.90
20416;DHT22;10367;52.202;5.996;2023-04-24T08:56:44;8.60;99.90
20416;DHT22;10367;52.202;5.996;2023-04-24T08:59:15;8.70;99.90
20416;DHT22;10367;52.202;5.996;2023-04-24T09:01:45;8.60;99.90
20416;DHT22;10367;52.202;5.996;2023-04-24T09:04:15;8.70;99.90
20416;DHT22;10367;52.202;5.996;2023-04-24T09:06:45;8.70;99.90
20416;DHT22;10367;52.202;5.996;2023-04-24T09:09:15;8.60;99.90
20416;DHT22;10367;52.202;5.996;2023-04-24T09:11:45;8.60;99.90
20416;DHT22;10367;52.202;5.996;2023-04-24T09:14:15;8.70;99.90
20416;DHT22;10367;52.202;5.996;2023-04-24T09:16:45;8.80;99.90
20416;DHT22;10367;52.202;5.996;2023-04-24T09:19:17;8.80;99.90
20416;DHT22;10367;52.202;5.996;2023-04-24T09:21:48;8.80;99.90
20416;DHT22;10367;52.202;5.996;2023-04-24T09:24:18;8.80;99.90
20416;DHT22;10367;52.202;5.996;2023-04-24T09:26:56;8.80;99.90
20416;DHT22;10367;52.202;5.996;2023-04-24T09:29:28;8.80;99.90
20416;DHT22;10367;52.202;5.996;2023-04-24T09:31:56;8.70;99.90
20416;DHT22;10367;52.202;5.996;2023-04-24T09:34:27;8.60;99.90
20416;DHT22;10367;52.202;5.996;2023-04-24T09:36:56;8.60;99.90
20416;DHT22;10367;52.202;5.996;2023-04-24T09:39:27;8.70;99.90
20416;DHT22;10367;52.202;5.996;2023-04-24T09:41:57;8.80;99.90
20416;DHT22;10367;52.202;5.996;2023-04-24T09:44:28;8.80;99.90
20416;DHT22;10367;52.202;5.996;2023-04-24T09:47:00;8.80;99.90
20416;DHT22;10367;52.202;5.996;2023-04-24T09:49:30;8.80;99.90
20416;DHT22;10367;52.202;5.996;2023-04-24T09:52:08;8.90;99.90
20416;DHT22;10367;52.202;5.996;2023-04-24T09:54:39;8.90;99.90
20416;DHT22;10367;52.202;5.996;2023-04-24T09:57:08;8.80;99.90
20416;DHT22;10367;52.202;5.996;2023-04-24T09:59:45;8.60;99.90
20416;DHT22;10367;52.202;5.996;2023-04-24T10:02:17;8.50;99.90
20416;DHT22;10367;52.202;5.996;2023-04-24T10:04:54;8.40;99.90
20416;DHT22;10367;52.202;5.996;2023-04-24T10:07:25;8.50;99.90
20416;DHT22;10367;52.202;5.996;2023-04-24T10:09:54;8.60;99.90
20416;DHT22;10367;52.202;5.996;2023-04-24T10:12:24;8.70;99.90
20416;DHT22;10367;52.202;5.996;2023-04-24T10:14:55;9.00;99.90
20416;DHT22;10367;52.202;5.996;2023-04-24T10:17:25;9.20;99.90
20416;DHT22;10367;52.202;5.996;2023-04-24T10:19:54;9.50;99.90
20416;DHT22;10367;52.202;5.996;2023-04-24T10:22:24;9.70;99.90
20416;DHT22;10367;52.202;5.996;2023-04-24T10:24:54;9.70;99.90
20416;DHT22;10367;52.202;5.996;2023-04-24T10:27:23;9.70;99.90
20416;DHT22;10367;52.202;5.996;2023-04-24T10:29:54;9.80;99.90
20416;DHT22;10367;52.202;5.996;2023-04-24T10:32:23;9.80;99.90
20416;DHT22;10367;52.202;5.996;2023-04-24T10:34:53;10.10;99.90
20416;DHT22;10367;52.202;5.996;2023-04-24T10:37:25;10.10;99.90
20416;DHT22;10367;52.202;5.996;2023-04-24T10:39:55;10.40;99.90
20416;DHT22;10367;52.202;5.996;2023-04-24T10:42:24;10.80;99.90
20416;DHT22;10367;52.202;5.996;2023-04-24T10:44:56;11.00;99.90
20416;DHT22;10367;52.202;5.996;2023-04-24T10:47:25;10.90;99.90
20416;DHT22;10367;52.202;5.996;2023-04-24T10:49:59;10.80;99.90
20416;DHT22;10367;52.202;5.996;2023-04-24T10:52:45;10.80;99.90
20416;DHT22;10367;52.202;5.996;2023-04-24T10:55:14;10.90;99.90
20416;DHT22;10367;52.202;5.996;2023-04-24T10:58:01;11.10;99.90
20416;DHT22;10367;52.202;5.996;2023-04-24T11:00:32;11.40;99.90
20416;DHT22;10367;52.202;5.996;2023-04-24T11:03:01;11.40;99.90
20416;DHT22;10367;52.202;5.996;2023-04-24T11:05:51;11.30;99.90
20416;DHT22;10367;52.202;5.996;2023-04-24T11:08:28;11.20;99.90
20416;DHT22;10367;52.202;5.996;2023-04-24T11:11:00;11.00;99.90
20416;DHT22;10367;52.202;5.996;2023-04-24T11:14:01;11.00;99.90
20416;DHT22;10367;52.202;5.996;2023-04-24T11:16:32;11.10;99.90
20416;DHT22;10367;52.202;5.996;2023-04-24T11:19:04;10.90;99.90
20416;DHT22;10367;52.202;5.996;2023-04-24T11:21:40;10.70;99.90
20416;DHT22;10367;52.202;5.996;2023-04-24T11:24:26;10.70;99.90
20416;DHT22;10367;52.202;5.996;2023-04-24T11:26:57;10.70;99.90
20416;DHT22;10367;52.202;5.996;2023-04-24T11:29:40;10.80;99.90
20416;DHT22;10367;52.202;5.996;2023-04-24T11:32:25;10.60;99.90
20416;DHT22;10367;52.202;5.996;2023-04-24T11:34:56;10.40;99.90
20416;DHT22;10367;52.202;5.996;2023-04-24T11:37:27;10.20;99.90
20416;DHT22;10367;52.202;5.996;2023-04-24T11:39:57;10.00;99.90
20416;DHT22;10367;52.202;5.996;2023-04-24T11:42:28;10.20;99.90
20416;DHT22;10367;52.202;5.996;2023-04-24T11:44:57;10.60;99.90
20416;DHT22;10367;52.202;5.996;2023-04-24T11:47:30;10.70;99.90
20416;DHT22;10367;52.202;5.996;2023-04-24T11:50:01;10.80;99.90
20416;DHT22;10367;52.202;5.996;2023-04-24T11:52:31;11.00;99.90
20416;DHT22;10367;52.202;5.996;2023-04-24T11:54:59;11.00;99.90
20416;DHT22;10367;52.202;5.996;2023-04-24T11:57:29;11.20;99.90
20416;DHT22;10367;52.202;5.996;2023-04-24T12:00:01;11.20;99.90
20416;DHT22;10367;52.202;5.996;2023-04-24T12:02:32;11.30;99.90
20416;DHT22;10367;52.202;5.996;2023-04-24T12:05:06;11.40;99.90
20416;DHT22;10367;52.202;5.996;2023-04-24T12:07:40;11.60;99.90
20416;DHT22;10367;52.202;5.996;2023-04-24T12:10:10;11.70;99.90
20416;DHT22;10367;52.202;5.996;2023-04-24T12:12:39;11.60;99.90
20416;DHT22;10367;52.202;5.996;2023-04-24T12:15:10;11.20;99.90
20416;DHT22;10367;52.202;5.996;2023-04-24T12:17:41;11.20;99.90
20416;DHT22;10367;52.202;5.996;2023-04-24T12:20:12;11.00;99.90
20416;DHT22;10367;52.202;5.996;2023-04-24T12:22:45;10.70;99.90
20416;DHT22;10367;52.202;5.996;2023-04-24T12:25:15;10.50;99.90
20416;DHT22;10367;52.202;5.996;2023-04-24T12:27:45;10.50;99.90
20416;DHT22;10367;52.202;5.996;2023-04-24T12:30:15;10.60;99.90
20416;DHT22;10367;52.202;5.996;2023-04-24T12:32:48;10.60;99.90
20416;DHT22;10367;52.202;5.996;2023-04-24T12:35:19;10.60;99.90
20416;DHT22;10367;52.202;5.996;2023-04-24T12:37:49;10.90;99.90
20416;DHT22;10367;52.202;5.996;2023-04-24T12:40:19;11.20;99.90
20416;DHT22;10367;52.202;5.996;2023-04-24T12:42:50;11.20;99.90
20416;DHT22;10367;52.202;5.996;2023-04-24T12:45:19;11.10;99.90
20416;DHT22;10367;52.202;5.996;2023-04-24T12:47:52;10.80;99.90
20416;DHT22;10367;52.202;5.996;2023-04-24T12:50:20;10.60;99.90
20416;DHT22;10367;52.202;5.996;2023-04-24T12:52:49;10.50;99.90
20416;DHT22;10367;52.202;5.996;2023-04-24T12:55:18;10.20;99.90
20416;DHT22;10367;52.202;5.996;2023-04-24T12:57:47;10.10;99.90
20416;DHT22;10367;52.202;5.996;2023-04-24T13:00:16;10.10;99.90
20416;DHT22;10367;52.202;5.996;2023-04-24T13:02:48;10.30;99.90
20416;DHT22;10367;52.202;5.996;2023-04-24T13:05:21;10.70;99.90
20416;DHT22;10367;52.202;5.996;2023-04-24T13:07:51;10.80;99.90
20416;DHT22;10367;52.202;5.996;2023-04-24T13:10:20;10.90;99.90
20416;DHT22;10367;52.202;5.996;2023-04-24T13:12:51;11.00;99.90
20416;DHT22;10367;52.202;5.996;2023-04-24T13:15:21;10.80;99.90
20416;DHT22;10367;52.202;5.996;2023-04-24T13:17:50;10.60;99.90
20416;DHT22;10367;52.202;5.996;2023-04-24T13:20:21;10.60;99.90
20416;DHT22;10367;52.202;5.996;2023-04-24T13:22:50;10.70;99.90
20416;DHT22;10367;52.202;5.996;2023-04-24T13:25:20;10.70;99.90
20416;DHT22;10367;52.202;5.996;2023-04-24T13:27:51;10.60;99.90
20416;DHT22;10367;52.202;5.996;2023-04-24T13:30:22;10.50;99.90
20416;DHT22;10367;52.202;5.996;2023-04-24T13:32:50;10.40;99.90
20416;DHT22;10367;52.202;5.996;2023-04-24T13:35:24;10.10;99.90
20416;DHT22;10367;52.202;5.996;2023-04-24T13:37:52;9.70;99.90
20416;DHT22;10367;52.202;5.996;2023-04-24T13:40:21;9.60;99.90
20416;DHT22;10367;52.202;5.996;2023-04-24T13:42:52;9.60;99.90
20416;DHT22;10367;52.202;5.996;2023-04-24T13:45:21;9.80;99.90
20416;DHT22;10367;52.202;5.996;2023-04-24T13:47:52;9.70;99.90
20416;DHT22;10367;52.202;5.996;2023-04-24T13:50:23;9.60;99.90
20416;DHT22;10367;52.202;5.996;2023-04-24T13:52:51;9.70;99.90
20416;DHT22;10367;52.202;5.996;2023-04-24T13:55:24;9.90;99.90
20416;DHT22;10367;52.202;5.996;2023-04-24T13:57:53;10.30;99.90
20416;DHT22;10367;52.202;5.996;2023-04-24T14:00:26;10.60;99.90
20416;DHT22;10367;52.202;5.996;2023-04-24T14:02:54;10.60;99.90
20416;DHT22;10367;52.202;5.996;2023-04-24T14:05:27;10.70;99.90
20416;DHT22;10367;52.202;5.996;2023-04-24T14:07:59;10.70;99.90
20416;DHT22;10367;52.202;5.996;2023-04-24T14:10:28;10.80;99.90
20416;DHT22;10367;52.202;5.996;2023-04-24T14:13:02;10.60;99.90
20416;DHT22;10367;52.202;5.996;2023-04-24T14:15:30;10.50;99.90
20416;DHT22;10367;52.202;5.996;2023-04-24T14:17:59;10.40;99.90
20416;DHT22;10367;52.202;5.996;2023-04-24T14:20:31;10.10;99.90
20416;DHT22;10367;52.202;5.996;2023-04-24T14:23:00;10.00;99.90
20416;DHT22;10367;52.202;5.996;2023-04-24T14:25:28;9.80;99.90
20416;DHT22;10367;52.202;5.996;2023-04-24T14:27:57;9.90;99.90
20416;DHT22;10367;52.202;5.996;2023-04-24T14:30:26;9.90;99.90
20416;DHT22;10367;52.202;5.996;2023-04-24T14:32:54;10.10;99.90
20416;DHT22;10367;52.202;5.996;2023-04-24T14:35:23;10.40;99.90
20416;DHT22;10367;52.202;5.996;2023-04-24T14:37:56;10.70;99.90
20416;DHT22;10367;52.202;5.996;2023-04-24T14:40:24;10.70;99.90
20416;DHT22;10367;52.202;5.996;2023-04-24T14:43:13;10.90;99.90
20416;DHT22;10367;52.202;5.996;2023-04-24T14:45:42;11.00;99.90
20416;DHT22;10367;52.202;5.996;2023-04-24T14:48:13;10.90;99.90
20416;DHT22;10367;52.202;5.996;2023-04-24T14:50:46;10.60;99.90
20416;DHT22;10367;52.202;5.996;2023-04-24T14:53:16;10.30;99.90
20416;DHT22;10367;52.202;5.996;2023-04-24T14:55:46;9.70;99.90
20416;DHT22;10367;52.202;5.996;2023-04-24T14:58:14;9.70;99.90
20416;DHT22;10367;52.202;5.996;2023-04-24T15:00:43;10.10;99.90
20416;DHT22;10367;52.202;5.996;2023-04-24T15:03:14;10.30;99.90
20416;DHT22;10367;52.202;5.996;2023-04-24T15:05:43;10.60;99.90
20416;DHT22;10367;52.202;5.996;2023-04-24T15:08:12;11.00;99.90
20416;DHT22;10367;52.202;5.996;2023-04-24T15:10:42;11.10;99.90
20416;DHT22;10367;52.202;5.996;2023-04-24T15:13:11;11.50;99.90
20416;DHT22;10367;52.202;5.996;2023-04-24T15:15:40;11.60;99.90
20416;DHT22;10367;52.202;5.996;2023-04-24T15:18:09;11.50;99.90
20416;DHT22;10367;52.202;5.996;2023-04-24T15:20:39;11.40;99.90
20416;DHT22;10367;52.202;5.996;2023-04-24T15:23:12;11.30;99.90
20416;DHT22;10367;52.202;5.996;2023-04-24T15:25:42;11.20;99.90
20416;DHT22;10367;52.202;5.996;2023-04-24T15:28:11;11.40;99.90
20416;DHT22;10367;52.202;5.996;2023-04-24T15:30:40;11.50;99.90
20416;DHT22;10367;52.202;5.996;2023-04-24T15:33:08;11.60;99.90
20416;DHT22;10367;52.202;5.996;2023-04-24T15:35:39;11.80;99.90
20416;DHT22;10367;52.202;5.996;2023-04-24T15:38:08;11.90;99.90
20416;DHT22;10367;52.202;5.996;2023-04-24T15:40:37;12.20;99.90
20416;DHT22;10367;52.202;5.996;2023-04-24T15:43:07;12.70;99.90
20416;DHT22;10367;52.202;5.996;2023-04-24T15:45:36;12.50;99.90
20416;DHT22;10367;52.202;5.996;2023-04-24T15:48:05;12.40;99.90
20416;DHT22;10367;52.202;5.996;2023-04-24T15:50:34;12.40;99.90
20416;DHT22;10367;52.202;5.996;2023-04-24T15:53:02;12.30;99.90
20416;DHT22;10367;52.202;5.996;2023-04-24T15:55:31;12.20;99.90
20416;DHT22;10367;52.202;5.996;2023-04-24T15:58:00;12.10;99.90
20416;DHT22;10367;52.202;5.996;2023-04-24T16:00:30;12.40;99.90
20416;DHT22;10367;52.202;5.996;2023-04-24T16:03:01;12.80;99.90